Schneifelwetter: Wetterstation Hallschlag, 537 m . NN
Wetterdaten: Samstag, 24.11.2012
Datum Zeit Temp. A. Feuchte A. Luftdruck Regen Wind Richtung Richtung Sonnenschein T Regen Taupunkt Windchill
24.11.2012 00:01 5,5 C 98 % 1015 hPa 0,0 l/m 15,9 km/h (3 Bft) S-SW22.5 195 0 min 0 min 5,2 C -0,8 C
24.11.2012 00:16 5,6 C 98 % 1015 hPa 0,0 l/m 18,3 km/h (3 Bft) SW45 220 0 min 0 min 5,3 C -1,7 C
24.11.2012 00:31 5,6 C 98 % 1015 hPa 0,0 l/m 23,0 km/h (4 Bft) SW22.5 230 0 min 0 min 5,3 C -3,5 C
24.11.2012 00:46 5,6 C 98 % 1015 hPa 0,0 l/m 15,6 km/h (3 Bft) SW45 235 0 min 0 min 5,3 C -0,5 C
24.11.2012 01:01 5,6 C 98 % 1015 hPa 0,0 l/m 17,8 km/h (3 Bft) W-SW45 240 0 min 0 min 5,3 C -1,5 C
24.11.2012 01:16 5,6 C 98 % 1015 hPa 0,0 l/m 17,2 km/h (3 Bft) SW45 235 0 min 0 min 5,3 C -1,2 C
24.11.2012 01:31 5,6 C 98 % 1015 hPa 0,0 l/m 19,5 km/h (3 Bft) W-SW22.5 245 0 min 0 min 5,3 C -2,2 C
24.11.2012 01:46 5,6 C 98 % 1015 hPa 1,2 l/m 18,2 km/h (3 Bft) W-SW45 245 0 min 15 min 5,3 C -1,7 C
24.11.2012 02:01 5,6 C 99 % 1015 hPa 0,3 l/m 11,1 km/h (2 Bft) W-SW67.5 255 0 min 15 min 5,5 C 2,0 C
24.11.2012 02:16 5,6 C 99 % 1015 hPa 0,0 l/m 15,7 km/h (3 Bft) SW22.5 230 0 min 0 min 5,5 C -0,5 C
24.11.2012 02:31 5,6 C 99 % 1015 hPa 0,3 l/m 15,1 km/h (3 Bft) W-SW45 240 0 min 15 min 5,5 C -0,2 C
24.11.2012 02:46 5,6 C 99 % 1015 hPa 0,0 l/m 14,0 km/h (3 Bft) SW45 225 0 min 0 min 5,5 C 0,3 C
24.11.2012 03:01 5,7 C 99 % 1015 hPa 0,0 l/m 13,8 km/h (3 Bft) SW22.5 220 0 min 0 min 5,6 C 0,5 C
24.11.2012 03:15 5,7 C 99 % 1015 hPa 0,0 l/m 19,4 km/h (3 Bft) W-SW22.5 245 0 min 0 min 5,6 C -2,0 C
24.11.2012 03:30 5,8 C 99 % 1015 hPa 0,0 l/m 10,9 km/h (2 Bft) W-SW45 255 0 min 0 min 5,7 C 2,4 C
24.11.2012 03:45 5,8 C 99 % 1015 hPa 0,0 l/m 10,9 km/h (2 Bft) W-SW45 255 0 min 0 min 5,7 C 2,4 C
24.11.2012 04:00 5,8 C 99 % 1015 hPa 0,0 l/m 15,8 km/h (3 Bft) SW45 230 0 min 0 min 5,7 C -0,3 C
24.11.2012 04:15 5,8 C 99 % 1015 hPa 0,0 l/m 16,1 km/h (3 Bft) W-SW22.5 240 0 min 0 min 5,7 C -0,5 C
24.11.2012 04:30 5,8 C 99 % 1015 hPa 0,0 l/m 3,1 km/h (1 Bft) SW22.5 225 0 min 0 min 5,7 C 5,8 C
24.11.2012 04:45 5,8 C 99 % 1015 hPa 0,0 l/m 10,5 km/h (2 Bft) SW45 215 0 min 0 min 5,7 C 2,6 C
24.11.2012 05:00 5,9 C 99 % 1015 hPa 0,0 l/m 8,3 km/h (2 Bft) SW22.5 225 0 min 0 min 5,8 C 4,3 C
24.11.2012 05:15 5,9 C 99 % 1015 hPa 0,0 l/m 7,6 km/h (2 Bft) SW22.5 225 0 min 0 min 5,8 C 4,9 C
24.11.2012 05:30 5,9 C 99 % 1015 hPa 0,0 l/m 7,9 km/h (2 Bft) SW22.5 215 0 min 0 min 5,8 C 4,6 C
24.11.2012 05:45 5,9 C 99 % 1015 hPa 0,0 l/m 0,4 km/h (0 Bft) S-SW22.5 205 0 min 0 min 5,8 C 5,9 C
24.11.2012 06:00 5,8 C 99 % 1015 hPa 0,0 l/m 6,8 km/h (2 Bft) S22.5 190 0 min 0 min 5,7 C 5,5 C
24.11.2012 06:15 5,8 C 99 % 1015 hPa 0,0 l/m 5,7 km/h (1 Bft) S-SW22.5 195 0 min 0 min 5,7 C 5,8 C
24.11.2012 06:30 5,7 C 99 % 1015 hPa 0,0 l/m 5,1 km/h (1 Bft) S-SW22.5 205 0 min 0 min 5,6 C 5,7 C
24.11.2012 06:45 5,7 C 99 % 1015 hPa 0,0 l/m 7,3 km/h (2 Bft) SW22.5 220 0 min 0 min 5,6 C 4,9 C
24.11.2012 07:00 5,7 C 99 % 1015 hPa 0,0 l/m 8,9 km/h (2 Bft) S22.5 185 0 min 0 min 5,6 C 3,6 C
24.11.2012 07:16 5,7 C 99 % 1015 hPa 0,0 l/m 1,5 km/h (1 Bft) SW22.5 220 0 min 0 min 5,6 C 5,7 C
24.11.2012 07:31 5,8 C 99 % 1015 hPa 0,0 l/m 0,0 km/h (0 Bft) SW 215 0 min 0 min 5,7 C 5,8 C
24.11.2012 07:45 5,8 C 99 % 1015 hPa 0,3 l/m 0,0 km/h (0 Bft) S-SW 200 0 min 14 min 5,7 C 5,8 C
24.11.2012 08:00 5,8 C 99 % 1015 hPa 0,0 l/m 0,0 km/h (0 Bft) W-SW45 240 0 min 0 min 5,7 C 5,8 C
24.11.2012 08:15 5,8 C 99 % 1015 hPa 0,0 l/m 0,0 km/h (0 Bft) S-SW22.5 205 0 min 0 min 5,7 C 5,8 C
24.11.2012 08:31 5,8 C 99 % 1015 hPa 0,0 l/m 0,0 km/h (0 Bft) S-SW 205 0 min 0 min 5,7 C 5,8 C
24.11.2012 08:46 5,8 C 99 % 1016 hPa 0,0 l/m 0,0 km/h (0 Bft) S 175 0 min 0 min 5,7 C 5,8 C
24.11.2012 09:01 5,8 C 99 % 1016 hPa 0,0 l/m 0,0 km/h (0 Bft) S 175 0 min 0 min 5,7 C 5,8 C
24.11.2012 09:15 6,0 C 99 % 1016 hPa 0,0 l/m 0,0 km/h (0 Bft) S 175 0 min 0 min 5,9 C 6,0 C
24.11.2012 09:30 6,1 C 99 % 1016 hPa 0,0 l/m 0,0 km/h (0 Bft) SW 235 0 min 0 min 6,0 C 6,1 C
24.11.2012 09:45 6,3 C 99 % 1016 hPa 0,0 l/m 0,0 km/h (0 Bft) SW 230 0 min 0 min 6,2 C 6,3 C
24.11.2012 10:01 6,4 C 99 % 1016 hPa 0,0 l/m 0,0 km/h (0 Bft) S 170 0 min 0 min 6,3 C 6,4 C
24.11.2012 10:16 6,7 C 99 % 1016 hPa 0,0 l/m 0,0 km/h (0 Bft) S 170 0 min 0 min 6,6 C 6,7 C
24.11.2012 10:31 7,0 C 99 % 1016 hPa 0,0 l/m 0,0 km/h (0 Bft) S-SO22.5 165 0 min 0 min 6,9 C 7,0 C
24.11.2012 10:45 7,2 C 99 % 1016 hPa 0,0 l/m 0,0 km/h (0 Bft) S 180 0 min 0 min 7,1 C 7,2 C
24.11.2012 11:00 7,6 C 99 % 1016 hPa 0,0 l/m 0,7 km/h (0 Bft) S-SO22.5 160 0 min 0 min 7,5 C 7,6 C
24.11.2012 11:15 7,5 C 99 % 1015 hPa 0,0 l/m 8,3 km/h (2 Bft) S-SO22.5 155 0 min 0 min 7,4 C 6,0 C
24.11.2012 11:31 7,6 C 99 % 1016 hPa 0,0 l/m 6,4 km/h (2 Bft) S-SO45 165 0 min 0 min 7,5 C 7,6 C
24.11.2012 11:46 7,6 C 99 % 1015 hPa 0,0 l/m 6,4 km/h (2 Bft) S-SO45 165 0 min 0 min 7,5 C 7,6 C
24.11.2012 12:00 7,4 C 98 % 1015 hPa 0,0 l/m 16,1 km/h (3 Bft) S-SO22.5 165 0 min 0 min 7,1 C 1,5 C
24.11.2012 12:15 7,4 C 98 % 1015 hPa 0,0 l/m 14,6 km/h (3 Bft) S-SO22.5 165 0 min 0 min 7,1 C 2,2 C
24.11.2012 12:30 7,6 C 98 % 1015 hPa 0,0 l/m 11,3 km/h (2 Bft) S-SO22.5 165 0 min 0 min 7,3 C 4,1 C
24.11.2012 12:46 8,1 C 98 % 1015 hPa 0,0 l/m 12,8 km/h (3 Bft) S22.5 175 0 min 0 min 7,8 C 3,9 C
24.11.2012 13:01 8,4 C 97 % 1015 hPa 0,0 l/m 12,0 km/h (2 Bft) S22.5 175 0 min 0 min 8,0 C 4,7 C
24.11.2012 13:16 8,4 C 96 % 1015 hPa 0,0 l/m 8,5 km/h (2 Bft) S-SO22.5 165 0 min 0 min 7,8 C 6,8 C
24.11.2012 13:30 8,3 C 96 % 1015 hPa 0,0 l/m 9,3 km/h (2 Bft) S45 185 0 min 0 min 7,7 C 6,2 C
24.11.2012 13:45 8,2 C 96 % 1014 hPa 0,0 l/m 8,9 km/h (2 Bft) S22.5 180 0 min 0 min 7,6 C 6,3 C
24.11.2012 14:00 8,2 C 96 % 1014 hPa 0,0 l/m 3,9 km/h (1 Bft) S-SO22.5 155 0 min 0 min 7,6 C 8,2 C
24.11.2012 14:16 8,1 C 95 % 1014 hPa 0,0 l/m 5,3 km/h (1 Bft) S-SO 165 0 min 0 min 7,3 C 8,1 C
24.11.2012 14:31 8,0 C 95 % 1014 hPa 0,0 l/m 0,0 km/h (0 Bft) S-SO22.5 160 0 min 0 min 7,2 C 8,0 C
24.11.2012 14:46 7,9 C 95 % 1014 hPa 0,0 l/m 0,0 km/h (0 Bft) S 180 0 min 0 min 7,1 C 7,9 C
24.11.2012 15:00 7,8 C 95 % 1013 hPa 0,0 l/m 0,0 km/h (0 Bft) S67.5 170 0 min 0 min 7,0 C 7,8 C
24.11.2012 15:15 7,6 C 95 % 1013 hPa 0,0 l/m 0,0 km/h (0 Bft) O-NO 70 0 min 0 min 6,9 C 7,6 C
24.11.2012 15:30 7,4 C 96 % 1013 hPa 0,0 l/m 0,0 km/h (0 Bft) O-NO 70 0 min 0 min 6,8 C 7,4 C
24.11.2012 15:46 7,2 C 96 % 1013 hPa 0,0 l/m 0,0 km/h (0 Bft) O-NO 70 0 min 0 min 6,6 C 7,2 C
24.11.2012 16:01 7,2 C 96 % 1013 hPa 0,0 l/m 0,0 km/h (0 Bft) O-NO 70 0 min 0 min 6,6 C 7,2 C
24.11.2012 16:16 6,8 C 96 % 1013 hPa 0,0 l/m 0,0 km/h (0 Bft) O-NO 70 0 min 0 min 6,2 C 6,8 C
24.11.2012 16:30 6,6 C 96 % 1013 hPa 0,0 l/m 0,0 km/h (0 Bft) O-NO 70 0 min 0 min 6,0 C 6,6 C
24.11.2012 16:45 6,3 C 96 % 1013 hPa 0,0 l/m 0,0 km/h (0 Bft) O45 80 0 min 0 min 5,7 C 6,3 C
24.11.2012 17:00 6,2 C 96 % 1013 hPa 0,0 l/m 0,0 km/h (0 Bft) SO22.5 140 0 min 0 min 5,6 C 6,2 C
24.11.2012 17:16 6,0 C 96 % 1013 hPa 0,0 l/m 0,0 km/h (0 Bft) SO22.5 140 0 min 0 min 5,4 C 6,0 C
24.11.2012 17:31 6,0 C 97 % 1013 hPa 0,0 l/m 0,0 km/h (0 Bft) SO 145 0 min 0 min 5,6 C 6,0 C
24.11.2012 17:46 6,0 C 97 % 1012 hPa 0,0 l/m 0,0 km/h (0 Bft) SO 145 0 min 0 min 5,6 C 6,0 C
24.11.2012 18:00 6,2 C 97 % 1012 hPa 0,0 l/m 0,0 km/h (0 Bft) N-NO22.5 25 0 min 0 min 5,8 C 6,2 C
24.11.2012 18:15 6,3 C 97 % 1012 hPa 0,0 l/m 7,9 km/h (2 Bft) N22.5 10 0 min 0 min 5,9 C 5,0 C
24.11.2012 18:30 6,4 C 97 % 1012 hPa 0,0 l/m 10,2 km/h (2 Bft) N-NO22.5 30 0 min 0 min 6,0 C 3,5 C
24.11.2012 18:46 6,3 C 97 % 1012 hPa 0,0 l/m 12,3 km/h (3 Bft) N-NO22.5 30 0 min 0 min 5,9 C 2,1 C
24.11.2012 19:01 6,1 C 97 % 1012 hPa 0,0 l/m 9,1 km/h (2 Bft) N-NO 30 0 min 0 min 5,7 C 3,9 C
24.11.2012 19:16 6,0 C 97 % 1012 hPa 0,0 l/m 9,1 km/h (2 Bft) N-NO 30 0 min 0 min 5,6 C 3,8 C
24.11.2012 19:30 6,3 C 97 % 1012 hPa 0,0 l/m 6,0 km/h (2 Bft) S-SO45 160 0 min 0 min 5,9 C 6,3 C
24.11.2012 19:45 6,7 C 98 % 1012 hPa 0,0 l/m 8,4 km/h (2 Bft) S22.5 190 0 min 0 min 6,4 C 5,1 C
24.11.2012 20:00 6,8 C 98 % 1011 hPa 0,0 l/m 10,1 km/h (2 Bft) NO45 50 0 min 0 min 6,5 C 4,0 C
24.11.2012 20:16 6,8 C 97 % 1011 hPa 0,0 l/m 13,0 km/h (3 Bft) N-NO22.5 25 0 min 0 min 6,4 C 2,3 C
24.11.2012 20:31 6,6 C 97 % 1011 hPa 0,0 l/m 10,0 km/h (2 Bft) NO22.5 45 0 min 0 min 6,2 C 3,8 C
24.11.2012 20:45 6,7 C 98 % 1011 hPa 0,0 l/m 9,0 km/h (2 Bft) N22.5 10 0 min 0 min 6,4 C 4,6 C
24.11.2012 21:00 6,8 C 98 % 1010 hPa 0,0 l/m 8,1 km/h (2 Bft) NO22.5 35 0 min 0 min 6,5 C 5,4 C
24.11.2012 21:15 6,9 C 98 % 1010 hPa 0,0 l/m 0,3 km/h (0 Bft) N-NO 20 0 min 0 min 6,6 C 6,9 C
24.11.2012 21:30 6,9 C 98 % 1010 hPa 0,0 l/m 5,1 km/h (1 Bft) O-NO45 65 0 min 0 min 6,6 C 6,9 C
24.11.2012 21:46 7,1 C 98 % 1010 hPa 0,0 l/m 6,7 km/h (2 Bft) SO45 125 0 min 0 min 6,8 C 6,9 C
24.11.2012 22:01 7,2 C 98 % 1010 hPa 0,0 l/m 0,0 km/h (0 Bft) SO22.5 125 0 min 0 min 6,9 C 7,2 C
24.11.2012 22:15 7,1 C 98 % 1010 hPa 0,0 l/m 0,0 km/h (0 Bft) O45 85 0 min 0 min 6,8 C 7,1 C
24.11.2012 22:30 7,2 C 98 % 1010 hPa 0,0 l/m 1,8 km/h (1 Bft) S22.5 170 0 min 0 min 6,9 C 7,2 C
24.11.2012 22:45 7,2 C 97 % 1009 hPa 0,0 l/m 1,8 km/h (1 Bft) S22.5 170 0 min 0 min 6,8 C 7,2 C
24.11.2012 23:00 7,1 C 97 % 1009 hPa 0,0 l/m 1,8 km/h (1 Bft) S22.5 170 0 min 0 min 6,7 C 7,1 C
24.11.2012 23:16 7,1 C 97 % 1009 hPa 0,0 l/m 12,0 km/h (2 Bft) S-SW45 205 0 min 0 min 6,7 C 3,2 C
24.11.2012 23:31 7,4 C 97 % 1009 hPa 0,0 l/m 20,2 km/h (4 Bft) S-SO22.5 165 0 min 0 min 7,0 C -0,1 C
24.11.2012 23:45 7,5 C 97 % 1009 hPa 0,0 l/m 19,5 km/h (3 Bft) S22.5 175 0 min 0 min 7,1 C 0,2 C
_ Min-Zeit 00:01 14:16 22:45 - 07:31 - - - - 00:01 00:31
Minimum _ 5,5 C 95 % 1009 hPa - 0,0 km/h (0 Bft) - - - - 5,2 C -3,5 C
_ Max-Zeit 13:01 02:01 08:46 01:46 00:31 - - 00:01 01:46 13:01 14:00
Maximum _ 8,4 C 99 % 1016 hPa 1,2 l/m 23,0 km/h
SW (4 Bft)
- - 0 min 15 min 8,0 C 8,2 C
Durchschnitt _ 6,5 C 98 % 1014 hPa #2,1 l/m 6,9 km/h (2 Bft) SW - #0 min. #59 min. 6,2 C 4,5 C